createdAt,value
2023-04-27T00:00:23.130Z,40.64
2023-04-27T00:02:48.955Z,40.92
2023-04-27T00:05:14.813Z,40.61
2023-04-27T00:07:40.595Z,40.72
2023-04-27T00:10:07.118Z,40.72
2023-04-27T00:12:32.767Z,40.92
2023-04-27T00:14:58.676Z,40.74
2023-04-27T00:17:24.354Z,40.84
2023-04-27T00:19:50.194Z,40.83
2023-04-27T00:22:15.931Z,40.96
2023-04-27T00:24:41.603Z,40.72
2023-04-27T00:27:07.254Z,40.70
2023-04-27T00:29:32.913Z,40.57
2023-04-27T00:31:58.622Z,40.82
2023-04-27T00:34:24.366Z,40.64
2023-04-27T00:36:50.014Z,40.87
2023-04-27T00:39:16.381Z,40.63
2023-04-27T00:41:42.126Z,40.71
2023-04-27T00:44:07.793Z,40.74
2023-04-27T00:46:34.030Z,40.86
2023-04-27T00:49:00.181Z,40.97
2023-04-27T00:51:29.314Z,40.55
2023-04-27T00:53:57.308Z,41.07
2023-04-27T00:56:23.061Z,40.71
2023-04-27T00:58:49.029Z,41.00
2023-04-27T01:01:14.840Z,41.00
2023-04-27T01:03:41.151Z,41.03
2023-04-27T01:06:07.015Z,40.98
2023-04-27T01:08:32.736Z,41.01
2023-04-27T01:10:58.427Z,40.90
2023-04-27T01:13:24.134Z,40.72
2023-04-27T01:15:49.891Z,40.82
2023-04-27T01:18:15.530Z,41.09
2023-04-27T01:20:41.403Z,40.73
2023-04-27T01:23:07.045Z,40.92
2023-04-27T01:25:32.916Z,40.76
2023-04-27T01:27:58.638Z,40.92
2023-04-27T01:30:24.358Z,41.04
2023-04-27T01:32:50.338Z,40.94
2023-04-27T01:35:16.209Z,40.84
2023-04-27T01:37:41.885Z,40.94
2023-04-27T01:40:07.947Z,40.98
2023-04-27T01:42:33.613Z,40.96
2023-04-27T01:44:59.877Z,41.11
2023-04-27T01:47:26.698Z,41.02
2023-04-27T01:49:52.433Z,41.07
2023-04-27T01:52:18.179Z,40.84
2023-04-27T01:54:43.827Z,40.92
2023-04-27T01:57:09.523Z,40.86
2023-04-27T01:59:35.218Z,40.97
2023-04-27T02:02:00.961Z,41.15
2023-04-27T02:04:26.741Z,40.85
2023-04-27T02:06:52.529Z,40.97
2023-04-27T02:09:18.176Z,41.01
2023-04-27T02:11:43.848Z,40.92
2023-04-27T02:14:09.514Z,40.93
2023-04-27T02:16:35.341Z,40.96
2023-04-27T02:19:01.111Z,40.94
2023-04-27T02:21:27.674Z,41.01
2023-04-27T02:23:53.430Z,40.97
2023-04-27T02:26:20.046Z,40.85
2023-04-27T02:28:46.799Z,40.82
2023-04-27T02:31:13.792Z,41.15
2023-04-27T02:33:40.516Z,41.04
2023-04-27T02:36:07.607Z,41.07
2023-04-27T02:38:33.382Z,41.15
2023-04-27T02:40:59.111Z,41.10
2023-04-27T02:43:24.750Z,41.10
2023-04-27T02:45:50.503Z,40.85
2023-04-27T02:48:16.145Z,41.03
2023-04-27T02:50:42.456Z,41.07
2023-04-27T02:53:08.565Z,40.77
2023-04-27T02:55:34.356Z,40.84
2023-04-27T02:58:00.067Z,41.08
2023-04-27T03:00:26.175Z,40.85
2023-04-27T03:02:52.016Z,41.16
2023-04-27T03:05:18.033Z,40.91
2023-04-27T03:07:43.783Z,40.87
2023-04-27T03:10:09.843Z,40.96
2023-04-27T03:12:35.566Z,40.75
2023-04-27T03:15:01.280Z,40.78
2023-04-27T03:17:27.179Z,40.78
2023-04-27T03:19:52.998Z,41.00
2023-04-27T03:22:18.698Z,41.20
2023-04-27T03:24:44.464Z,40.99
2023-04-27T03:27:10.991Z,41.16
2023-04-27T03:29:36.640Z,40.96
2023-04-27T03:32:03.690Z,41.10
2023-04-27T03:34:29.825Z,40.70
2023-04-27T03:36:56.030Z,40.92
2023-04-27T03:39:22.096Z,40.94
2023-04-27T03:41:47.737Z,40.79
2023-04-27T03:44:13.414Z,41.01
2023-04-27T03:46:39.065Z,41.09
2023-04-27T03:49:04.721Z,40.82
2023-04-27T03:51:32.555Z,41.11
2023-04-27T03:53:58.450Z,40.77
2023-04-27T03:56:24.225Z,41.20
2023-04-27T03:58:49.885Z,40.77
2023-04-27T04:01:15.923Z,41.17
2023-04-27T04:03:42.070Z,40.78
2023-04-27T04:06:07.976Z,40.86
2023-04-27T04:08:33.694Z,40.73
2023-04-27T04:10:59.972Z,41.04
2023-04-27T04:13:26.170Z,40.88
2023-04-27T04:16:08.748Z,41.05
2023-04-27T04:18:35.326Z,40.79
2023-04-27T04:21:01.461Z,40.86
2023-04-27T04:23:27.215Z,41.04
2023-04-27T04:25:55.558Z,41.25
2023-04-27T04:28:21.744Z,40.95
2023-04-27T04:30:47.461Z,41.06
2023-04-27T04:33:13.096Z,40.74
2023-04-27T04:35:40.636Z,40.85
2023-04-27T04:38:06.578Z,41.03
2023-04-27T04:40:32.280Z,40.49
2023-04-27T04:42:57.925Z,40.34
2023-04-27T04:45:23.592Z,40.76
2023-04-27T04:47:49.389Z,41.04
2023-04-27T04:50:15.098Z,40.94
2023-04-27T04:52:40.748Z,40.82
2023-04-27T04:55:06.564Z,40.75
2023-04-27T04:57:32.249Z,41.17
2023-04-27T04:59:58.047Z,40.94
2023-04-27T05:02:23.826Z,41.06
2023-04-27T05:04:51.387Z,41.03
2023-04-27T05:07:20.183Z,40.75
2023-04-27T05:09:49.062Z,40.96
2023-04-27T05:12:14.706Z,41.09
2023-04-27T05:14:40.350Z,41.26
2023-04-27T05:17:06.033Z,41.16
2023-04-27T05:19:31.673Z,40.93
2023-04-27T05:21:57.896Z,40.89
2023-04-27T05:24:25.463Z,40.43
2023-04-27T05:26:51.116Z,39.59
2023-04-27T05:29:16.893Z,40.60
2023-04-27T05:31:42.631Z,40.89
2023-04-27T05:34:09.154Z,40.88
2023-04-27T05:36:35.444Z,40.84
2023-04-27T05:39:01.912Z,40.20
2023-04-27T05:41:29.015Z,40.63
2023-04-27T05:43:54.674Z,41.25
2023-04-27T05:46:20.678Z,41.27
2023-04-27T05:48:46.457Z,41.39
2023-04-27T05:51:12.542Z,41.12
2023-04-27T05:53:38.227Z,41.77
2023-04-27T05:56:05.882Z,42.03
2023-04-27T05:58:32.393Z,41.52
2023-04-27T06:00:59.119Z,41.61
2023-04-27T06:03:25.370Z,41.46
2023-04-27T06:05:58.108Z,41.58
2023-04-27T06:08:24.611Z,41.35
2023-04-27T06:10:50.577Z,41.48
2023-04-27T06:13:16.690Z,41.16
2023-04-27T06:15:42.770Z,41.25
2023-04-27T06:18:08.498Z,41.46
2023-04-27T06:20:34.278Z,41.57
2023-04-27T06:23:00.465Z,41.26
2023-04-27T06:25:27.807Z,41.12
2023-04-27T06:27:55.488Z,41.54
2023-04-27T06:30:21.785Z,41.18
2023-04-27T06:32:48.103Z,41.59
2023-04-27T06:35:13.815Z,41.47
2023-04-27T06:37:39.479Z,41.27
2023-04-27T06:40:06.092Z,41.31
2023-04-27T06:42:31.757Z,41.25
2023-04-27T06:44:57.906Z,41.49
2023-04-27T06:47:23.617Z,41.32
2023-04-27T06:49:49.861Z,41.62
2023-04-27T06:52:16.100Z,41.40
2023-04-27T06:54:42.012Z,41.34
2023-04-27T06:57:07.681Z,41.15
2023-04-27T06:59:33.453Z,40.93
2023-04-27T07:01:59.292Z,41.03
2023-04-27T07:04:25.290Z,40.70
2023-04-27T07:06:51.008Z,39.70
2023-04-27T07:09:26.444Z,40.61
2023-04-27T07:11:53.038Z,40.29
2023-04-27T07:14:18.692Z,39.37
2023-04-27T07:16:44.370Z,39.25
2023-04-27T07:19:10.248Z,39.27
2023-04-27T07:21:36.038Z,38.25
2023-04-27T07:24:02.195Z,38.59
2023-04-27T07:26:27.839Z,38.29
2023-04-27T07:28:54.281Z,38.34
2023-04-27T07:31:20.023Z,38.34
2023-04-27T07:33:45.885Z,38.25
2023-04-27T07:36:11.526Z,39.49
2023-04-27T07:38:37.653Z,38.22
2023-04-27T07:41:04.862Z,38.28
2023-04-27T07:43:32.138Z,37.96
2023-04-27T07:45:57.834Z,38.13
2023-04-27T07:48:23.944Z,37.65
2023-04-27T07:50:50.165Z,37.12
2023-04-27T07:53:16.204Z,37.92
2023-04-27T07:55:43.682Z,37.50
2023-04-27T07:58:09.779Z,38.03
2023-04-27T08:00:35.737Z,38.32
2023-04-27T08:03:01.935Z,38.36
2023-04-27T08:05:28.178Z,38.62
2023-04-27T08:07:54.830Z,38.59
2023-04-27T08:10:20.796Z,38.81
2023-04-27T08:12:46.474Z,38.44
2023-04-27T08:15:12.220Z,38.18
2023-04-27T08:17:40.924Z,38.52
2023-04-27T08:20:10.571Z,38.29
2023-04-27T08:22:37.512Z,38.51
2023-04-27T08:25:03.841Z,37.82
2023-04-27T08:27:30.136Z,38.35
2023-04-27T08:29:55.790Z,38.14
2023-04-27T08:32:21.454Z,38.23
2023-04-27T08:34:47.152Z,37.34
2023-04-27T08:37:12.919Z,34.06
2023-04-27T08:39:38.608Z,36.35
2023-04-27T08:42:12.100Z,35.42
2023-04-27T08:44:41.688Z,36.09
2023-04-27T08:47:08.251Z,36.04
2023-04-27T08:49:34.621Z,35.89
2023-04-27T08:52:01.141Z,35.73
2023-04-27T08:54:26.871Z,36.64
2023-04-27T08:56:52.542Z,35.68
2023-04-27T08:59:18.195Z,36.01
2023-04-27T09:01:45.674Z,36.39
2023-04-27T09:04:11.610Z,36.35
2023-04-27T09:06:37.517Z,36.29
2023-04-27T09:09:03.338Z,36.64
2023-04-27T09:14:22.014Z,36.74
2023-04-27T09:16:56.728Z,36.85
2023-04-27T09:19:26.118Z,37.14
2023-04-27T09:22:03.759Z,36.39
2023-04-27T09:24:29.752Z,36.50
2023-04-27T09:26:55.402Z,36.62
2023-04-27T09:29:31.659Z,36.15
2023-04-27T09:31:57.437Z,36.70
2023-04-27T09:34:23.230Z,36.73
2023-04-27T09:36:49.142Z,36.78
2023-04-27T09:39:15.575Z,37.32
2023-04-27T09:41:41.419Z,33.46
2023-04-27T09:44:07.800Z,34.31
2023-04-27T09:46:33.758Z,34.97
2023-04-27T09:49:00.646Z,34.18
2023-04-27T09:51:27.866Z,34.93
2023-04-27T09:53:55.813Z,35.53
2023-04-27T09:57:01.648Z,34.11
2023-04-27T09:59:40.014Z,34.63
2023-04-27T10:02:20.817Z,34.49
2023-04-27T10:05:13.651Z,32.34
2023-04-27T10:07:40.455Z,33.67
2023-04-27T10:10:06.553Z,34.35
2023-04-27T10:12:35.587Z,34.29
2023-04-27T10:15:12.251Z,34.65
2023-04-27T10:17:37.995Z,34.71
2023-04-27T10:20:06.736Z,34.72
2023-04-27T10:22:41.329Z,34.80
2023-04-27T10:25:28.819Z,33.99
2023-04-27T10:27:57.288Z,35.12
2023-04-27T10:30:23.612Z,35.77
2023-04-27T10:32:51.079Z,33.78
2023-04-27T10:35:16.980Z,34.88
2023-04-27T10:37:42.988Z,35.05
2023-04-27T10:40:13.757Z,35.34
2023-04-27T10:42:40.652Z,35.46
2023-04-27T10:45:07.291Z,35.87
2023-04-27T10:47:37.620Z,36.37
2023-04-27T10:50:05.265Z,35.54
2023-04-27T10:52:31.013Z,35.38
2023-04-27T10:54:56.873Z,35.28
2023-04-27T10:57:22.574Z,35.36
2023-04-27T10:59:50.860Z,34.75
2023-04-27T11:02:16.526Z,35.39
2023-04-27T11:04:42.326Z,35.40
2023-04-27T11:07:09.350Z,35.06
2023-04-27T11:09:37.241Z,35.19
2023-04-27T11:12:06.271Z,35.95
2023-04-27T11:14:31.951Z,35.56
2023-04-27T11:16:57.807Z,35.57
2023-04-27T11:19:23.445Z,35.06
2023-04-27T11:21:49.130Z,35.44
2023-04-27T11:24:15.565Z,34.54
2023-04-27T11:26:41.418Z,35.54
2023-04-27T11:29:11.468Z,35.66
2023-04-27T11:31:41.105Z,35.63
2023-04-27T11:34:07.896Z,35.24
2023-04-27T11:36:33.686Z,35.23
2023-04-27T11:38:59.420Z,35.35
2023-04-27T11:41:34.294Z,35.53
2023-04-27T11:44:05.548Z,35.28
2023-04-27T11:46:31.246Z,35.49
2023-04-27T11:49:05.420Z,35.45
2023-04-27T11:51:32.349Z,35.35
2023-04-27T11:54:04.332Z,35.05
2023-04-27T11:56:39.092Z,36.00
2023-04-27T11:59:05.121Z,35.33
2023-04-27T12:01:38.270Z,35.39
2023-04-27T12:04:04.499Z,35.64
2023-04-27T12:06:33.245Z,35.93
2023-04-27T12:08:59.360Z,35.12
2023-04-27T12:11:26.908Z,34.70
2023-04-27T12:13:53.249Z,33.69
2023-04-27T12:16:21.318Z,33.63
2023-04-27T12:18:48.630Z,33.98
2023-04-27T12:21:14.796Z,34.53
2023-04-27T12:23:40.805Z,34.17
2023-04-27T12:26:06.539Z,34.75
2023-04-27T12:28:32.262Z,35.60
2023-04-27T12:30:58.106Z,34.91
2023-04-27T12:33:24.076Z,35.09
2023-04-27T12:35:49.790Z,35.56
2023-04-27T12:38:15.567Z,35.78
2023-04-27T12:40:41.288Z,35.00
2023-04-27T12:43:08.041Z,35.35
2023-04-27T12:45:33.688Z,35.21
2023-04-27T12:48:03.748Z,35.41
2023-04-27T12:50:31.297Z,35.00
2023-04-27T12:52:56.935Z,34.14
2023-04-27T12:55:33.116Z,34.46
2023-04-27T12:58:00.249Z,34.58
2023-04-27T13:00:25.992Z,34.71
2023-04-27T13:02:51.980Z,34.56
2023-04-27T13:05:17.747Z,35.01
2023-04-27T13:07:43.402Z,34.38
2023-04-27T13:10:10.757Z,34.85
2023-04-27T13:12:36.457Z,34.14
2023-04-27T13:15:02.435Z,35.15
2023-04-27T13:17:28.096Z,35.00
2023-04-27T13:19:53.758Z,34.24
2023-04-27T13:22:20.165Z,34.36
2023-04-27T13:24:46.155Z,35.42
2023-04-27T13:27:11.821Z,33.42
2023-04-27T13:29:37.523Z,33.55
2023-04-27T13:32:03.251Z,34.89
2023-04-27T13:34:29.471Z,33.43
2023-04-27T13:36:55.134Z,35.27
2023-04-27T13:39:21.299Z,34.53
2023-04-27T13:41:47.138Z,35.12
2023-04-27T13:44:12.887Z,35.17
2023-04-27T13:46:38.729Z,35.62
2023-04-27T13:49:04.412Z,34.14
2023-04-27T13:51:30.268Z,34.64
2023-04-27T13:53:55.905Z,35.50
2023-04-27T13:56:21.727Z,35.37
2023-04-27T13:58:47.400Z,35.85
2023-04-27T14:01:13.080Z,38.30
2023-04-27T14:03:39.841Z,35.63
2023-04-27T14:06:07.461Z,34.23
2023-04-27T14:08:33.134Z,34.56
2023-04-27T14:10:58.813Z,35.31
2023-04-27T14:13:24.921Z,34.44
2023-04-27T14:15:50.579Z,34.65
2023-04-27T14:18:16.296Z,35.23
2023-04-27T14:20:43.611Z,33.27
2023-04-27T14:23:10.343Z,34.02
2023-04-27T14:25:36.105Z,33.16
2023-04-27T14:28:03.308Z,34.59
2023-04-27T14:30:29.205Z,38.40
2023-04-27T14:32:55.075Z,34.73
2023-04-27T14:35:22.757Z,34.43
2023-04-27T14:37:50.026Z,33.21
2023-04-27T14:40:15.680Z,34.44
2023-04-27T14:42:41.326Z,33.99
2023-04-27T14:45:07.669Z,33.48
2023-04-27T14:47:33.359Z,33.50
2023-04-27T14:49:59.061Z,32.93
2023-04-27T14:52:24.733Z,33.35
2023-04-27T14:54:50.385Z,32.94
2023-04-27T14:57:16.034Z,33.03
2023-04-27T14:59:41.681Z,32.22
2023-04-27T15:02:07.325Z,32.48
2023-04-27T15:04:34.641Z,32.47
2023-04-27T15:07:00.646Z,32.07
2023-04-27T15:09:26.507Z,32.63
2023-04-27T15:11:52.206Z,36.17
2023-04-27T15:14:17.890Z,38.08
2023-04-27T15:16:43.527Z,32.55
2023-04-27T15:19:09.181Z,35.89
2023-04-27T15:21:34.909Z,34.10
2023-04-27T15:24:00.567Z,32.81
2023-04-27T15:26:26.394Z,33.73
2023-04-27T15:28:53.669Z,32.80
2023-04-27T15:31:19.341Z,34.20
2023-04-27T15:33:45.008Z,34.87
2023-04-27T15:36:10.763Z,32.57
2023-04-27T15:38:36.442Z,32.72
2023-04-27T15:41:02.183Z,33.24
2023-04-27T15:43:27.835Z,33.11
2023-04-27T15:45:54.042Z,33.40
2023-04-27T15:48:19.679Z,37.45
2023-04-27T15:50:45.883Z,36.53
2023-04-27T15:53:11.993Z,36.81
2023-04-27T15:55:37.652Z,38.28
2023-04-27T15:58:03.315Z,35.62
2023-04-27T16:00:29.119Z,38.23
2023-04-27T16:02:54.958Z,36.96
2023-04-27T16:05:20.774Z,38.20
2023-04-27T16:07:46.443Z,38.25
2023-04-27T16:10:12.887Z,38.23
2023-04-27T16:12:38.680Z,38.18
2023-04-27T16:15:04.738Z,38.48
2023-04-27T16:17:32.766Z,38.54
2023-04-27T16:19:58.460Z,38.69
2023-04-27T16:22:24.101Z,39.02
2023-04-27T16:24:49.771Z,38.79
2023-04-27T16:27:17.138Z,39.20
2023-04-27T16:29:42.915Z,38.79
2023-04-27T16:32:09.782Z,39.06
2023-04-27T16:34:36.417Z,39.22
2023-04-27T16:37:02.060Z,39.36
2023-04-27T16:39:27.713Z,38.97
2023-04-27T16:41:53.383Z,39.42
2023-04-27T16:44:19.070Z,39.04
2023-04-27T16:46:44.911Z,39.23
2023-04-27T16:49:10.562Z,39.44
2023-04-27T16:51:36.217Z,39.06
2023-04-27T16:54:02.102Z,39.17
2023-04-27T16:56:29.425Z,39.33
2023-04-27T16:58:55.249Z,39.16
2023-04-27T17:01:22.454Z,39.21
2023-04-27T17:03:48.300Z,39.63
2023-04-27T17:06:13.998Z,39.48
2023-04-27T17:08:39.667Z,39.33
2023-04-27T17:11:08.781Z,39.20
2023-04-27T17:13:34.652Z,39.29
2023-04-27T17:16:00.329Z,39.32
2023-04-27T17:18:26.256Z,39.18
2023-04-27T17:20:52.369Z,39.13
2023-04-27T17:23:18.233Z,39.46
2023-04-27T17:25:43.878Z,39.30
2023-04-27T17:28:09.996Z,39.27
2023-04-27T17:30:35.774Z,39.63
2023-04-27T17:33:02.371Z,39.47
2023-04-27T17:35:28.601Z,39.40
2023-04-27T17:37:54.260Z,39.47
2023-04-27T17:40:20.138Z,39.24
2023-04-27T17:42:46.798Z,39.27
2023-04-27T17:45:12.440Z,39.59
2023-04-27T17:47:38.091Z,39.54
2023-04-27T17:50:03.980Z,39.27
2023-04-27T17:52:29.630Z,39.46
2023-04-27T17:54:55.330Z,39.67
2023-04-27T17:57:21.540Z,39.36
2023-04-27T17:59:47.180Z,39.60
2023-04-27T18:02:12.883Z,39.34
2023-04-27T18:04:38.630Z,39.54
2023-04-27T18:07:04.363Z,39.44
2023-04-27T18:09:32.859Z,39.64
2023-04-27T18:11:59.059Z,39.49
2023-04-27T18:14:25.175Z,39.42
2023-04-27T18:16:50.906Z,39.54
2023-04-27T18:19:16.955Z,39.46
2023-04-27T18:21:42.872Z,39.54
2023-04-27T18:24:08.884Z,39.85
2023-04-27T18:26:35.944Z,39.58
2023-04-27T18:29:02.252Z,39.57
2023-04-27T18:31:28.014Z,39.62
2023-04-27T18:33:53.908Z,39.68
2023-04-27T18:36:20.055Z,39.59
2023-04-27T18:38:47.416Z,39.54
2023-04-27T18:41:13.650Z,39.70
2023-04-27T18:43:39.321Z,39.60
2023-04-27T18:46:05.168Z,39.53
2023-04-27T18:48:31.499Z,39.70
2023-04-27T18:50:57.202Z,39.62
2023-04-27T18:53:23.111Z,39.61
2023-04-27T18:55:48.752Z,39.75
2023-04-27T18:58:14.420Z,39.70
2023-04-27T19:00:40.072Z,39.48
2023-04-27T19:03:06.080Z,39.83
2023-04-27T19:05:32.155Z,39.70
2023-04-27T19:07:57.957Z,39.43
2023-04-27T19:10:23.632Z,39.89
2023-04-27T19:12:49.350Z,39.72
2023-04-27T19:15:15.114Z,39.53
2023-04-27T19:17:40.902Z,39.25
2023-04-27T19:20:07.881Z,39.94
2023-04-27T19:22:35.898Z,40.02
2023-04-27T19:25:03.503Z,39.61
2023-04-27T19:27:29.262Z,39.55
2023-04-27T19:29:56.728Z,39.50
2023-04-27T19:32:26.517Z,39.66
2023-04-27T19:34:54.195Z,40.14
2023-04-27T19:37:19.929Z,40.15
2023-04-27T19:39:46.114Z,39.86
2023-04-27T19:42:11.796Z,40.02
2023-04-27T19:44:37.446Z,39.95
2023-04-27T19:47:03.125Z,39.95
2023-04-27T19:49:31.807Z,39.55
2023-04-27T19:51:58.486Z,40.10
2023-04-27T19:54:24.140Z,39.86
2023-04-27T19:56:49.781Z,39.55
2023-04-27T19:59:15.447Z,39.81
2023-04-27T20:01:41.377Z,39.94
2023-04-27T20:04:07.271Z,39.80
2023-04-27T20:06:33.497Z,40.11
2023-04-27T20:08:59.224Z,39.76
2023-04-27T20:11:24.902Z,39.83
2023-04-27T20:13:50.634Z,39.97
2023-04-27T20:16:17.525Z,39.83
2023-04-27T20:18:44.435Z,39.50
2023-04-27T20:21:10.595Z,39.78
2023-04-27T20:23:36.552Z,39.83
2023-04-27T20:26:02.301Z,40.17
2023-04-27T20:28:29.862Z,39.98
2023-04-27T20:30:56.165Z,39.87
2023-04-27T20:33:21.983Z,40.14
2023-04-27T20:35:47.696Z,40.11
2023-04-27T20:38:13.334Z,40.13
2023-04-27T20:40:39.202Z,40.04
2023-04-27T20:43:04.866Z,39.96
2023-04-27T20:45:30.535Z,39.82
2023-04-27T20:47:56.667Z,40.02
2023-04-27T20:50:22.777Z,40.04
2023-04-27T20:52:48.434Z,40.16
2023-04-27T20:55:14.270Z,39.96
2023-04-27T20:57:40.050Z,39.53
2023-04-27T21:00:09.071Z,39.59
2023-04-27T21:02:35.460Z,40.06
2023-04-27T21:05:01.186Z,40.17
2023-04-27T21:07:27.087Z,40.00
2023-04-27T21:09:52.753Z,40.24
2023-04-27T21:12:18.407Z,39.93
2023-04-27T21:14:44.310Z,39.92
2023-04-27T21:17:10.308Z,40.24
2023-04-27T21:19:36.126Z,39.85
2023-04-27T21:22:02.056Z,40.05
2023-04-27T21:24:27.736Z,39.99
2023-04-27T21:26:53.365Z,39.98
2023-04-27T21:29:19.014Z,40.12
2023-04-27T21:31:44.679Z,40.27
2023-04-27T21:34:10.373Z,39.89
2023-04-27T21:36:36.539Z,39.97
2023-04-27T21:39:02.219Z,40.00
2023-04-27T21:41:27.910Z,40.08
2023-04-27T21:43:53.567Z,40.03
2023-04-27T21:46:19.316Z,39.89
2023-04-27T21:48:44.963Z,40.04
2023-04-27T21:51:10.595Z,39.89
2023-04-27T21:53:36.390Z,40.29
2023-04-27T21:56:02.065Z,40.28
2023-04-27T21:58:27.779Z,40.04
2023-04-27T22:00:53.447Z,39.93
2023-04-27T22:03:19.238Z,39.94
2023-04-27T22:05:47.939Z,40.30
2023-04-27T22:08:13.737Z,40.33
2023-04-27T22:10:39.440Z,40.13
2023-04-27T22:13:17.709Z,40.25
2023-04-27T22:15:45.193Z,40.02
2023-04-27T22:18:11.331Z,40.30
2023-04-27T22:20:37.633Z,40.34
2023-04-27T22:23:03.306Z,39.98
2023-04-27T22:25:29.058Z,40.16
2023-04-27T22:27:54.803Z,39.98
2023-04-27T22:30:20.438Z,40.29
2023-04-27T22:32:46.578Z,40.25
2023-04-27T22:35:24.894Z,40.25
2023-04-27T22:37:51.822Z,40.28
2023-04-27T22:40:17.523Z,40.25
2023-04-27T22:42:43.168Z,40.26
2023-04-27T22:45:09.562Z,40.20
2023-04-27T22:47:35.269Z,40.41
2023-04-27T22:50:01.051Z,40.05
2023-04-27T22:52:26.832Z,40.39
2023-04-27T22:54:52.548Z,40.08
2023-04-27T22:57:18.207Z,40.09
2023-04-27T22:59:43.914Z,40.46
2023-04-27T23:02:10.262Z,40.31
2023-04-27T23:04:35.948Z,40.20
2023-04-27T23:07:01.606Z,40.15
2023-04-27T23:09:27.278Z,40.15
2023-04-27T23:11:52.925Z,40.16
2023-04-27T23:14:18.577Z,40.23
2023-04-27T23:16:45.559Z,40.43
2023-04-27T23:19:11.972Z,39.99
2023-04-27T23:21:37.823Z,40.22
2023-04-27T23:24:03.784Z,40.07
2023-04-27T23:26:29.489Z,40.39
2023-04-27T23:28:55.357Z,40.42
2023-04-27T23:31:22.386Z,40.25
2023-04-27T23:33:48.145Z,40.45
2023-04-27T23:36:13.807Z,40.49
2023-04-27T23:38:39.583Z,40.28
2023-04-27T23:41:05.240Z,40.19
2023-04-27T23:43:30.981Z,40.09
2023-04-27T23:45:56.644Z,40.25
2023-04-27T23:48:22.337Z,40.35
2023-04-27T23:50:48.030Z,40.26
2023-04-27T23:53:13.818Z,40.43
2023-04-27T23:55:39.542Z,40.30
2023-04-27T23:58:05.192Z,40.43
